createdAt,value
2018-09-21T00:02:04.202Z,95.50
2018-09-21T00:04:32.671Z,95.62
2018-09-21T00:07:01.148Z,95.45
2018-09-21T00:09:29.643Z,94.85
2018-09-21T00:11:58.150Z,94.74
2018-09-21T00:14:26.630Z,95.18
2018-09-21T00:16:55.115Z,94.83
2018-09-21T00:19:23.591Z,94.60
2018-09-21T00:21:52.067Z,94.51
2018-09-21T00:24:20.543Z,94.49
2018-09-21T00:26:49.067Z,94.58
2018-09-21T00:29:17.551Z,93.98
2018-09-21T00:31:46.018Z,94.12
2018-09-21T00:34:14.529Z,94.68
2018-09-21T00:36:43.015Z,94.43
2018-09-21T00:39:11.918Z,94.51
2018-09-21T00:41:40.644Z,93.90
2018-09-21T00:44:09.148Z,94.18
2018-09-21T00:46:37.986Z,93.91
2018-09-21T00:49:06.474Z,93.94
2018-09-21T00:51:34.967Z,94.00
2018-09-21T00:54:03.490Z,93.60
2018-09-21T00:56:31.995Z,93.73
2018-09-21T00:59:00.495Z,93.87
2018-09-21T01:01:28.977Z,93.80
2018-09-21T01:03:57.475Z,93.21
2018-09-21T01:06:25.959Z,93.22
2018-09-21T01:08:54.421Z,93.67
2018-09-21T01:11:22.893Z,93.42
2018-09-21T01:13:51.366Z,93.07
2018-09-21T01:16:19.918Z,93.25
2018-09-21T01:18:48.417Z,92.99
2018-09-21T01:21:16.895Z,93.54
2018-09-21T01:23:45.405Z,93.41
2018-09-21T01:26:14.806Z,93.03
2018-09-21T01:28:43.283Z,92.89
2018-09-21T01:31:11.777Z,93.19
2018-09-21T01:33:40.242Z,92.74
2018-09-21T01:36:08.758Z,92.71
2018-09-21T01:38:37.242Z,93.26
2018-09-21T01:41:05.766Z,93.35
2018-09-21T01:43:34.244Z,93.16
2018-09-21T01:46:02.736Z,92.54
2018-09-21T01:48:31.215Z,92.94
2018-09-21T01:50:59.712Z,93.21
2018-09-21T01:53:28.238Z,92.71
2018-09-21T01:55:56.739Z,93.05
2018-09-21T01:58:25.222Z,92.54
2018-09-21T02:00:53.764Z,93.11
2018-09-21T02:03:22.244Z,92.39
2018-09-21T02:05:50.761Z,92.87
2018-09-21T02:08:19.258Z,92.77
2018-09-21T02:10:47.734Z,92.98
2018-09-21T02:13:16.206Z,92.46
2018-09-21T02:15:44.744Z,93.12
2018-09-21T02:18:13.268Z,93.15
2018-09-21T02:20:41.752Z,92.79
2018-09-21T02:23:10.231Z,92.65
2018-09-21T02:25:38.698Z,92.57
2018-09-21T02:28:07.180Z,93.05
2018-09-21T02:30:35.659Z,93.10
2018-09-21T02:33:04.164Z,92.95
2018-09-21T02:35:32.690Z,92.32
2018-09-21T02:38:01.201Z,92.91
2018-09-21T02:40:29.689Z,93.12
2018-09-21T02:42:58.175Z,92.46
2018-09-21T02:45:26.670Z,92.78
2018-09-21T02:47:55.173Z,93.03
2018-09-21T02:50:23.983Z,92.55
2018-09-21T02:52:52.498Z,92.66
2018-09-21T02:55:20.980Z,92.80
2018-09-21T02:57:49.532Z,92.93
2018-09-21T03:00:18.026Z,92.28
2018-09-21T03:02:46.514Z,92.67
2018-09-21T03:05:14.995Z,92.48
2018-09-21T03:07:43.498Z,92.24
2018-09-21T03:10:11.979Z,92.30
2018-09-21T03:12:40.462Z,92.48
2018-09-21T03:15:08.619Z,92.83
2018-09-21T03:17:37.098Z,92.97
2018-09-21T03:20:05.783Z,92.19
2018-09-21T03:22:34.366Z,92.50
2018-09-21T03:25:03.747Z,92.80
2018-09-21T03:27:33.300Z,92.66
2018-09-21T03:30:01.847Z,92.41
2018-09-21T03:32:30.382Z,92.75
2018-09-21T03:34:58.895Z,92.27
2018-09-21T03:37:27.419Z,92.52
2018-09-21T03:39:55.956Z,92.38
2018-09-21T03:42:24.537Z,92.91
2018-09-21T03:44:53.085Z,92.72
2018-09-21T03:47:21.707Z,92.30
2018-09-21T03:49:50.252Z,92.33
2018-09-21T03:52:18.801Z,92.29
2018-09-21T03:54:47.336Z,92.20
2018-09-21T03:57:15.918Z,92.73
2018-09-21T03:59:44.471Z,92.65
2018-09-21T04:02:13.020Z,92.47
2018-09-21T04:04:42.538Z,92.00
2018-09-21T04:07:11.638Z,92.38
2018-09-21T04:09:40.242Z,91.94
2018-09-21T04:12:08.789Z,92.21
2018-09-21T04:14:37.314Z,92.14
2018-09-21T04:17:05.946Z,92.09
2018-09-21T04:19:34.545Z,91.74
2018-09-21T04:22:03.052Z,92.47
2018-09-21T04:24:31.636Z,92.10
2018-09-21T04:27:00.106Z,91.96
2018-09-21T04:29:28.663Z,92.46
2018-09-21T04:31:57.167Z,91.57
2018-09-21T04:34:25.727Z,91.62
2018-09-21T04:36:54.328Z,91.74
2018-09-21T04:39:22.855Z,91.81
2018-09-21T04:41:51.368Z,91.62
2018-09-21T04:44:19.888Z,91.23
2018-09-21T04:46:48.383Z,91.90
2018-09-21T04:49:16.895Z,91.80
2018-09-21T04:51:45.460Z,91.81
2018-09-21T04:54:13.949Z,91.54
2018-09-21T04:56:42.500Z,92.04
2018-09-21T04:59:11.032Z,90.77
2018-09-21T05:01:39.530Z,85.89
2018-09-21T05:04:08.088Z,84.42
2018-09-21T05:06:36.574Z,81.38
2018-09-21T05:09:07.562Z,80.75
2018-09-21T05:11:36.121Z,79.95
2018-09-21T05:14:05.106Z,79.43
2018-09-21T05:16:33.647Z,77.75
2018-09-21T05:19:02.313Z,76.70
2018-09-21T05:21:30.883Z,75.26
2018-09-21T05:23:59.445Z,75.58
2018-09-21T05:26:28.021Z,74.16
2018-09-21T05:28:56.554Z,74.26
2018-09-21T05:31:25.038Z,73.93
2018-09-21T05:33:53.536Z,74.11
2018-09-21T05:36:22.114Z,74.65
2018-09-21T05:38:50.771Z,74.30
2018-09-21T05:41:19.263Z,74.69
2018-09-21T05:43:47.737Z,74.72
2018-09-21T05:46:16.402Z,75.55
2018-09-21T05:48:45.821Z,75.22
2018-09-21T05:51:14.458Z,74.65
2018-09-21T05:53:43.159Z,76.51
2018-09-21T05:56:11.942Z,77.59
2018-09-21T05:58:40.615Z,78.68
2018-09-21T06:01:09.219Z,78.97
2018-09-21T06:03:39.097Z,78.07
2018-09-21T06:06:07.885Z,77.26
2018-09-21T06:08:36.565Z,78.02
2018-09-21T06:11:05.171Z,78.32
2018-09-21T06:13:33.880Z,78.22
2018-09-21T06:16:03.437Z,77.64
2018-09-21T06:18:32.155Z,78.45
2018-09-21T06:21:00.973Z,78.24
2018-09-21T06:23:29.559Z,78.64
2018-09-21T06:25:58.118Z,78.44
2018-09-21T06:28:26.682Z,78.98
2018-09-21T06:30:55.242Z,79.03
2018-09-21T06:33:23.788Z,78.62
2018-09-21T06:35:52.322Z,78.81
2018-09-21T06:38:20.931Z,78.91
2018-09-21T06:40:49.571Z,78.89
2018-09-21T06:43:18.256Z,78.82
2018-09-21T06:45:46.831Z,78.71
2018-09-21T06:48:15.399Z,79.10
2018-09-21T06:50:43.991Z,78.98
2018-09-21T06:53:12.591Z,78.93
2018-09-21T06:55:41.172Z,79.45
2018-09-21T06:58:09.748Z,80.38
2018-09-21T07:00:38.265Z,80.92
2018-09-21T07:03:06.814Z,81.42
2018-09-21T07:05:35.385Z,81.23
2018-09-21T07:08:03.924Z,82.29
2018-09-21T07:10:32.487Z,82.46
2018-09-21T07:13:01.044Z,82.88
2018-09-21T07:15:29.613Z,82.94
2018-09-21T07:17:58.464Z,82.85
2018-09-21T07:20:27.081Z,83.47
2018-09-21T07:22:55.623Z,83.27
2018-09-21T07:25:24.194Z,83.17
2018-09-21T07:27:52.714Z,83.50
2018-09-21T07:30:21.314Z,84.01
2018-09-21T07:32:50.546Z,83.49
2018-09-21T07:35:19.191Z,83.60
2018-09-21T07:37:48.491Z,83.66
2018-09-21T07:40:18.462Z,82.89
2018-09-21T07:42:47.184Z,83.60
2018-09-21T07:45:16.560Z,84.36
2018-09-21T07:47:46.292Z,83.84
2018-09-21T07:50:15.176Z,84.34
2018-09-21T07:52:45.672Z,84.61
2018-09-21T07:55:14.275Z,84.51
2018-09-21T07:57:42.871Z,84.32
2018-09-21T08:00:11.488Z,84.12
2018-09-21T08:02:40.067Z,84.73
2018-09-21T08:05:08.661Z,84.68
2018-09-21T08:07:37.172Z,84.22
2018-09-21T08:10:05.895Z,84.90
2018-09-21T08:12:34.551Z,84.85
2018-09-21T08:15:03.095Z,84.66
2018-09-21T08:17:32.549Z,84.50
2018-09-21T08:20:01.210Z,84.61
2018-09-21T08:22:30.696Z,85.03
2018-09-21T08:24:59.362Z,84.85
2018-09-21T08:27:27.868Z,84.58
2018-09-21T08:29:56.358Z,84.66
2018-09-21T08:32:24.910Z,85.17
2018-09-21T08:34:53.418Z,84.53
2018-09-21T08:37:22.033Z,85.25
2018-09-21T08:39:50.578Z,85.01
2018-09-21T08:42:19.176Z,84.91
2018-09-21T08:44:47.801Z,85.13
2018-09-21T08:47:16.372Z,84.76
2018-09-21T08:49:44.875Z,84.57
2018-09-21T08:52:14.330Z,85.36
2018-09-21T08:54:42.948Z,85.26
2018-09-21T08:57:11.501Z,85.20
2018-09-21T08:59:39.967Z,85.39
2018-09-21T09:02:08.451Z,85.40
2018-09-21T09:04:37.052Z,84.77
2018-09-21T09:07:05.683Z,85.31
2018-09-21T09:09:34.154Z,85.34
2018-09-21T09:12:02.663Z,85.37
2018-09-21T09:14:31.118Z,84.74
2018-09-21T09:16:59.782Z,84.96
2018-09-21T09:19:28.283Z,85.58
2018-09-21T09:21:56.751Z,85.51
2018-09-21T09:24:25.205Z,85.51
2018-09-21T09:26:53.687Z,85.08
2018-09-21T09:29:22.141Z,85.11
2018-09-21T09:31:50.630Z,85.54
2018-09-21T09:34:19.125Z,84.90
2018-09-21T09:36:47.644Z,85.11
2018-09-21T09:39:16.075Z,84.97
2018-09-21T09:41:44.535Z,85.66
2018-09-21T09:44:13.008Z,84.97
2018-09-21T09:46:41.466Z,85.38
2018-09-21T09:49:09.961Z,85.03
2018-09-21T09:51:38.508Z,85.17
2018-09-21T09:54:06.979Z,85.67
2018-09-21T09:56:35.446Z,84.98
2018-09-21T09:59:03.980Z,85.68
2018-09-21T10:01:32.440Z,85.33
2018-09-21T10:04:00.975Z,85.19
2018-09-21T10:06:29.468Z,85.51
2018-09-21T10:08:57.930Z,85.35
2018-09-21T10:11:26.443Z,85.43
2018-09-21T10:13:54.966Z,85.86
2018-09-21T10:16:23.474Z,85.28
2018-09-21T10:18:51.926Z,85.69
2018-09-21T10:21:20.413Z,85.87
2018-09-21T10:23:48.870Z,85.37
2018-09-21T10:26:17.411Z,85.52
2018-09-21T10:28:46.178Z,85.44
2018-09-21T10:31:14.963Z,85.25
2018-09-21T10:33:43.675Z,85.92
2018-09-21T10:36:12.251Z,86.24
2018-09-21T10:38:41.285Z,86.08
2018-09-21T10:41:09.828Z,85.88
2018-09-21T10:43:38.493Z,85.76
2018-09-21T10:46:07.484Z,85.50
2018-09-21T10:48:36.038Z,85.92
2018-09-21T10:51:04.850Z,85.87
2018-09-21T10:53:33.390Z,86.11
2018-09-21T10:56:01.877Z,85.79
2018-09-21T10:58:30.438Z,85.73
2018-09-21T11:00:59.037Z,86.15
2018-09-21T11:03:28.972Z,85.52
2018-09-21T11:05:57.528Z,85.78
2018-09-21T11:08:27.197Z,86.05
2018-09-21T11:10:56.274Z,85.77
2018-09-21T11:13:24.912Z,85.95
2018-09-21T11:15:53.470Z,86.32
2018-09-21T11:18:21.968Z,85.77
2018-09-21T11:20:50.466Z,86.11
2018-09-21T11:23:18.990Z,86.13
2018-09-21T11:25:47.518Z,85.64
2018-09-21T11:28:16.031Z,86.16
2018-09-21T11:30:44.523Z,85.69
2018-09-21T11:33:13.138Z,85.89
2018-09-21T11:35:41.710Z,86.15
2018-09-21T11:38:10.207Z,86.26
2018-09-21T11:40:38.807Z,86.31
2018-09-21T11:43:07.373Z,85.94
2018-09-21T11:45:35.933Z,86.44
2018-09-21T11:48:04.490Z,85.98
2018-09-21T11:50:32.990Z,85.82
2018-09-21T11:53:01.547Z,86.41
2018-09-21T11:55:30.069Z,86.37
2018-09-21T11:57:58.588Z,85.90
2018-09-21T12:00:27.221Z,86.43
2018-09-21T12:02:55.759Z,86.34
2018-09-21T12:05:24.280Z,85.79
2018-09-21T12:07:52.826Z,85.87
2018-09-21T12:10:21.381Z,86.18
2018-09-21T12:12:49.901Z,86.20
2018-09-21T12:15:18.433Z,86.17
2018-09-21T12:17:47.047Z,86.11
2018-09-21T12:20:15.555Z,86.11
2018-09-21T12:22:44.084Z,85.96
2018-09-21T12:25:12.590Z,86.56
2018-09-21T12:27:41.170Z,85.97
2018-09-21T12:30:09.765Z,86.30
2018-09-21T12:32:38.311Z,86.75
2018-09-21T12:35:06.862Z,86.35
2018-09-21T12:37:35.447Z,86.52
2018-09-21T12:40:04.050Z,86.34
2018-09-21T12:42:32.634Z,86.69
2018-09-21T12:45:01.218Z,86.73
2018-09-21T12:47:29.758Z,86.90
2018-09-21T12:49:58.274Z,86.23
2018-09-21T12:52:27.964Z,86.22
2018-09-21T12:55:00.459Z,86.77
2018-09-21T12:57:29.465Z,86.83
2018-09-21T12:59:58.139Z,86.15
2018-09-21T13:02:26.714Z,86.64
2018-09-21T13:04:55.265Z,86.23
2018-09-21T13:07:23.778Z,86.73
2018-09-21T13:09:52.328Z,86.38
2018-09-21T13:12:20.854Z,86.52
2018-09-21T13:14:49.347Z,86.17
2018-09-21T13:17:17.994Z,86.77
2018-09-21T13:19:46.532Z,86.81
2018-09-21T13:22:15.102Z,86.35
2018-09-21T13:24:43.670Z,86.35
2018-09-21T13:27:12.228Z,86.78
2018-09-21T13:29:40.966Z,86.71
2018-09-21T13:32:09.644Z,85.93
2018-09-21T13:34:38.256Z,86.58
2018-09-21T13:37:07.578Z,86.49
2018-09-21T13:39:36.178Z,86.89
2018-09-21T13:42:04.886Z,86.96
2018-09-21T13:44:33.563Z,86.93
2018-09-21T13:47:02.238Z,86.34
2018-09-21T13:49:30.888Z,86.69
2018-09-21T13:52:00.824Z,86.70
2018-09-21T13:54:29.774Z,86.65
2018-09-21T13:56:58.815Z,86.25
2018-09-21T13:59:28.059Z,86.74
2018-09-21T14:01:56.914Z,86.41
2018-09-21T14:04:26.877Z,87.03
2018-09-21T14:06:56.403Z,86.71
2018-09-21T14:09:25.940Z,86.88
2018-09-21T14:11:54.521Z,86.37
2018-09-21T14:14:23.640Z,86.64
2018-09-21T14:16:52.756Z,86.57
2018-09-21T14:19:21.504Z,86.37
2018-09-21T14:21:51.291Z,86.41
2018-09-21T14:24:19.947Z,86.45
2018-09-21T14:26:49.145Z,86.83
2018-09-21T14:29:17.761Z,87.29
2018-09-21T14:31:46.435Z,86.43
2018-09-21T14:34:15.135Z,86.51
2018-09-21T14:36:43.782Z,87.27
2018-09-21T14:39:12.831Z,86.55
2018-09-21T14:41:41.471Z,86.59
2018-09-21T14:44:10.116Z,87.01
2018-09-21T14:46:38.951Z,86.78
2018-09-21T14:49:07.693Z,87.06
2018-09-21T14:51:36.335Z,86.76
2018-09-21T14:54:05.030Z,86.84
2018-09-21T14:56:33.650Z,86.54
2018-09-21T14:59:04.659Z,87.29
2018-09-21T15:01:33.351Z,87.32
2018-09-21T15:04:02.002Z,86.73
2018-09-21T15:06:30.596Z,86.48
2018-09-21T15:08:59.282Z,87.18
2018-09-21T15:11:27.987Z,86.69
2018-09-21T15:13:56.630Z,87.22
2018-09-21T15:16:25.339Z,87.11
2018-09-21T15:18:54.027Z,87.32
2018-09-21T15:21:22.562Z,87.37
2018-09-21T15:23:51.209Z,87.13
2018-09-21T15:26:19.922Z,87.29
2018-09-21T15:28:48.540Z,87.40
2018-09-21T15:31:17.179Z,86.90
2018-09-21T15:33:45.765Z,86.86
2018-09-21T15:36:14.380Z,87.43
2018-09-21T15:38:43.929Z,87.46
2018-09-21T15:41:12.600Z,87.36
2018-09-21T15:43:41.298Z,87.06
2018-09-21T15:46:10.787Z,86.88
2018-09-21T15:48:39.469Z,86.99
2018-09-21T15:51:08.596Z,87.40
2018-09-21T15:53:37.424Z,87.13
2018-09-21T15:56:06.087Z,86.86
2018-09-21T15:58:34.758Z,87.06
2018-09-21T16:01:03.343Z,86.94
2018-09-21T16:03:31.942Z,87.21
2018-09-21T16:06:00.731Z,87.63
2018-09-21T16:08:29.195Z,87.37
2018-09-21T16:10:57.816Z,87.06
2018-09-21T16:13:26.416Z,86.84
2018-09-21T16:15:54.939Z,87.33
2018-09-21T16:18:23.598Z,87.66
2018-09-21T16:20:52.169Z,87.79
2018-09-21T16:23:20.751Z,87.46
2018-09-21T16:25:49.991Z,87.24
2018-09-21T16:28:18.538Z,87.76
2018-09-21T16:30:47.223Z,87.23
2018-09-21T16:33:16.648Z,87.76
2018-09-21T16:35:45.356Z,87.54
2018-09-21T16:38:13.942Z,87.06
2018-09-21T16:40:42.548Z,87.28
2018-09-21T16:43:11.181Z,87.33
2018-09-21T16:45:39.839Z,87.70
2018-09-21T16:48:08.443Z,87.74
2018-09-21T16:50:37.051Z,88.04
2018-09-21T16:53:05.742Z,87.48
2018-09-21T16:55:34.318Z,87.66
2018-09-21T16:58:02.930Z,87.19
2018-09-21T17:00:32.316Z,87.18
2018-09-21T17:03:01.109Z,87.75
2018-09-21T17:05:29.874Z,87.37
2018-09-21T17:07:59.827Z,87.36
2018-09-21T17:10:29.163Z,87.36
2018-09-21T17:12:57.762Z,88.06
2018-09-21T17:15:26.371Z,88.03
2018-09-21T17:17:56.753Z,88.05
2018-09-21T17:20:25.231Z,88.17
2018-09-21T17:22:53.703Z,87.42
2018-09-21T17:25:22.238Z,87.44
2018-09-21T17:27:50.742Z,87.95
2018-09-21T17:30:19.224Z,88.17
2018-09-21T17:32:47.794Z,88.43
2018-09-21T17:35:16.276Z,88.35
2018-09-21T17:37:44.781Z,88.66
2018-09-21T17:40:13.249Z,87.88
2018-09-21T17:42:41.731Z,88.15
2018-09-21T17:45:10.240Z,87.71
2018-09-21T17:47:38.864Z,88.31
2018-09-21T17:50:07.335Z,87.87
2018-09-21T17:52:35.831Z,88.21
2018-09-21T17:55:04.316Z,88.19
2018-09-21T17:57:32.811Z,87.60
2018-09-21T18:00:01.296Z,87.85
2018-09-21T18:02:29.856Z,88.28
2018-09-21T18:04:58.375Z,88.41
2018-09-21T18:07:26.959Z,88.34
2018-09-21T18:09:55.374Z,88.31
2018-09-21T18:12:23.851Z,88.04
2018-09-21T18:14:52.342Z,88.02
2018-09-21T18:17:20.891Z,88.29
2018-09-21T18:19:49.383Z,88.16
2018-09-21T18:22:17.859Z,88.43
2018-09-21T18:24:46.314Z,88.53
2018-09-21T18:27:14.790Z,88.51
2018-09-21T18:29:43.287Z,88.77
2018-09-21T18:32:11.812Z,88.24
2018-09-21T18:34:40.353Z,87.42
2018-09-21T18:37:08.978Z,86.68
2018-09-21T18:39:37.560Z,86.83
2018-09-21T18:42:06.113Z,87.87
2018-09-21T18:44:34.679Z,88.31
2018-09-21T18:47:03.378Z,87.77
2018-09-21T18:49:31.929Z,88.28
2018-09-21T18:52:00.554Z,88.83
2018-09-21T18:54:29.193Z,89.32
2018-09-21T18:56:57.746Z,88.72
2018-09-21T18:59:26.594Z,89.16
2018-09-21T19:01:55.170Z,89.20
2018-09-21T19:04:23.814Z,89.20
2018-09-21T19:06:52.487Z,88.80
2018-09-21T19:09:21.459Z,88.60
2018-09-21T19:11:51.173Z,88.96
2018-09-21T19:14:19.834Z,89.22
2018-09-21T19:16:48.479Z,88.78
2018-09-21T19:19:17.256Z,88.58
2018-09-21T19:21:45.983Z,88.61
2018-09-21T19:24:14.556Z,88.92
2018-09-21T19:26:43.268Z,88.48
2018-09-21T19:29:11.893Z,88.48
2018-09-21T19:31:40.421Z,88.71
2018-09-21T19:34:09.037Z,88.79
2018-09-21T19:36:37.598Z,88.86
2018-09-21T19:39:09.419Z,88.49
2018-09-21T19:41:38.126Z,88.90
2018-09-21T19:44:06.810Z,88.82
2018-09-21T19:46:35.989Z,88.33
2018-09-21T19:49:04.614Z,88.85
2018-09-21T19:51:33.271Z,89.01
2018-09-21T19:54:01.846Z,88.34
2018-09-21T19:56:31.051Z,89.06
2018-09-21T19:58:59.781Z,88.58
2018-09-21T20:01:28.425Z,88.71
2018-09-21T20:03:58.111Z,88.55
2018-09-21T20:06:26.736Z,88.28
2018-09-21T20:08:55.278Z,88.82
2018-09-21T20:11:23.902Z,88.62
2018-09-21T20:13:52.474Z,88.18
2018-09-21T20:16:21.070Z,88.63
2018-09-21T20:18:49.630Z,88.62
2018-09-21T20:21:18.192Z,88.55
2018-09-21T20:23:46.696Z,88.10
2018-09-21T20:26:15.310Z,88.48
2018-09-21T20:28:43.962Z,88.22
2018-09-21T20:31:17.684Z,87.97
2018-09-21T20:33:46.261Z,88.10
2018-09-21T20:36:14.830Z,88.10
2018-09-21T20:38:43.413Z,88.64
2018-09-21T20:41:11.955Z,87.99
2018-09-21T20:43:40.481Z,88.70
2018-09-21T20:46:09.241Z,88.73
2018-09-21T20:48:38.763Z,88.66
2018-09-21T20:51:09.981Z,88.57
2018-09-21T20:53:38.587Z,88.66
2018-09-21T20:56:07.098Z,88.73
2018-09-21T20:58:35.683Z,88.47
2018-09-21T21:01:04.263Z,88.73
2018-09-21T21:03:32.848Z,88.29
2018-09-21T21:06:01.354Z,88.74
2018-09-21T21:08:30.383Z,88.12
2018-09-21T21:10:59.038Z,88.35
2018-09-21T21:13:27.610Z,88.52
2018-09-21T21:15:56.177Z,88.21
2018-09-21T21:18:24.667Z,88.29
2018-09-21T21:20:53.298Z,88.39
2018-09-21T21:23:21.862Z,88.52
2018-09-21T21:25:50.407Z,88.17
2018-09-21T21:28:18.972Z,88.08
2018-09-21T21:30:47.563Z,88.60
2018-09-21T21:33:16.121Z,88.15
2018-09-21T21:35:45.084Z,88.25
2018-09-21T21:38:13.625Z,88.50
2018-09-21T21:40:42.134Z,88.91
2018-09-21T21:43:10.717Z,88.58
2018-09-21T21:45:39.275Z,88.77
2018-09-21T21:48:07.897Z,88.70
2018-09-21T21:50:36.547Z,88.74
2018-09-21T21:53:05.108Z,88.27
2018-09-21T21:55:35.747Z,88.50
2018-09-21T21:58:04.366Z,88.62
2018-09-21T22:00:38.265Z,88.01
2018-09-21T22:03:06.922Z,88.07
2018-09-21T22:05:35.473Z,88.08
2018-09-21T22:08:04.008Z,88.79
2018-09-21T22:10:32.561Z,88.75
2018-09-21T22:13:06.369Z,88.50
2018-09-21T22:15:34.912Z,88.73
2018-09-21T22:18:03.447Z,88.32
2018-09-21T22:20:31.969Z,87.98
2018-09-21T22:23:00.554Z,88.52
2018-09-21T22:25:29.144Z,88.44
2018-09-21T22:27:57.715Z,88.14
2018-09-21T22:30:26.429Z,88.49
2018-09-21T22:32:54.990Z,88.44
2018-09-21T22:35:23.559Z,88.06
2018-09-21T22:37:52.167Z,88.35
2018-09-21T22:40:20.738Z,88.52
2018-09-21T22:42:49.302Z,88.40
2018-09-21T22:45:17.862Z,88.25
2018-09-21T22:47:46.492Z,88.51
2018-09-21T22:50:15.054Z,88.57
2018-09-21T22:52:43.607Z,88.64
2018-09-21T22:55:12.167Z,88.77
2018-09-21T22:57:40.672Z,88.55
2018-09-21T23:00:09.318Z,88.10
2018-09-21T23:02:38.690Z,88.82
2018-09-21T23:05:07.245Z,88.25
2018-09-21T23:07:35.794Z,88.57
2018-09-21T23:10:04.389Z,88.85
2018-09-21T23:12:32.931Z,88.22
2018-09-21T23:15:01.496Z,88.38
2018-09-21T23:17:30.087Z,88.81
2018-09-21T23:19:58.713Z,88.31
2018-09-21T23:22:27.263Z,88.26
2018-09-21T23:24:55.797Z,88.12
2018-09-21T23:27:24.376Z,88.77
2018-09-21T23:29:53.536Z,88.32
2018-09-21T23:32:22.120Z,88.63
2018-09-21T23:34:51.489Z,88.02
2018-09-21T23:37:20.019Z,88.69
2018-09-21T23:39:48.560Z,88.57
2018-09-21T23:42:17.108Z,88.29
2018-09-21T23:44:45.651Z,87.87
2018-09-21T23:47:14.238Z,88.55
2018-09-21T23:49:42.802Z,87.86
2018-09-21T23:52:11.307Z,87.92
2018-09-21T23:54:39.915Z,88.35
2018-09-21T23:57:08.464Z,87.74
2018-09-21T23:59:37.017Z,87.64
